VOE8FP LGAV-LFLL
Flight info
| Callsign | VOE8FP |
|---|---|
| Flight time | 2h 35m |
| Altitude | 36000 |
| Route | KOR UL53 GARTA DCT OLGAT DCT TUFTE DCT KUGIX DCT OLKIS DCT TESTO DCT TOP DCT RONOP DCT GIGUS Z40 AMVAR |
| Aircraft | A319/M-SDFGIJ1RWY/LB1 |
Departure
| Time | 2026-05-04 12:47 |
|---|---|
| Airport | Athens Eleftherios Venizelos International Airport (LGAV) |
Arrival
| Time | 2026-05-04 15:22 |
|---|---|
| Airport | Lyon Saint-Exupéry Airport (LFLL) |
| Time | Latitude | Longitude | Altitude | Speed | Heading |
|---|---|---|---|---|---|
| 2026-05-04 12:27 | 37.93024 | 23.94330 | 302 ft | 0 kts | 38° |
| 2026-05-04 12:39 | 37.93007 | 23.94314 | 301 ft | 4 kts | 36° |
| 2026-05-04 12:40 | 37.92985 | 23.94294 | 302 ft | 4 kts | 35° |
| 2026-05-04 12:40 | 37.92963 | 23.94274 | 302 ft | 4 kts | 43° |
| 2026-05-04 12:40 | 37.92949 | 23.94251 | 300 ft | 4 kts | 95° |
| 2026-05-04 12:40 | 37.92950 | 23.94243 | 300 ft | 0 kts | 128° |
| 2026-05-04 12:43 | 37.92949 | 23.94244 | 300 ft | 1 kts | 128° |
| 2026-05-04 12:43 | 37.92939 | 23.94261 | 302 ft | 4 kts | 127° |
| 2026-05-04 12:43 | 37.92919 | 23.94295 | 301 ft | 6 kts | 126° |
| 2026-05-04 12:44 | 37.92888 | 23.94345 | 303 ft | 8 kts | 127° |
| 2026-05-04 12:44 | 37.92849 | 23.94412 | 303 ft | 10 kts | 125° |
| 2026-05-04 12:44 | 37.92788 | 23.94455 | 302 ft | 11 kts | 189° |
| 2026-05-04 12:44 | 37.92717 | 23.94397 | 302 ft | 13 kts | 217° |
| 2026-05-04 12:45 | 37.92642 | 23.94325 | 305 ft | 14 kts | 217° |
| 2026-05-04 12:45 | 37.92566 | 23.94284 | 304 ft | 11 kts | 147° |
| 2026-05-04 12:45 | 37.92521 | 23.94351 | 306 ft | 9 kts | 126° |
| 2026-05-04 12:45 | 37.92487 | 23.94410 | 308 ft | 8 kts | 126° |
| 2026-05-04 12:46 | 37.92502 | 23.94468 | 308 ft | 11 kts | 38° |
| 2026-05-04 12:46 | 37.92697 | 23.94653 | 304 ft | 70 kts | 37° |
| 2026-05-04 12:46 | 37.93276 | 23.95203 | 290 ft | 135 kts | 37° |
| 2026-05-04 12:46 | 37.93845 | 23.95746 | 330 ft | 162 kts | 38° |
| 2026-05-04 12:47 | 37.94721 | 23.96579 | 1082 ft | 157 kts | 38° |
| 2026-05-04 12:47 | 37.95593 | 23.97414 | 1776 ft | 157 kts | 30° |
| 2026-05-04 12:47 | 37.96495 | 23.98275 | 2281 ft | 172 kts | 33° |
| 2026-05-04 12:47 | 37.97514 | 23.99242 | 2609 ft | 196 kts | 33° |
| 2026-05-04 12:48 | 37.98674 | 24.00341 | 3040 ft | 220 kts | 32° |
| 2026-05-04 12:48 | 38.00107 | 24.01187 | 3503 ft | 238 kts | 5° |
| 2026-05-04 12:48 | 38.01804 | 24.01250 | 4236 ft | 249 kts | 356° |
| 2026-05-04 12:48 | 38.03527 | 24.00991 | 5183 ft | 250 kts | 341° |
| 2026-05-04 12:49 | 38.05039 | 23.99898 | 6098 ft | 254 kts | 316° |
| 2026-05-04 12:49 | 38.06009 | 23.98037 | 7012 ft | 258 kts | 291° |
| 2026-05-04 12:49 | 38.06216 | 23.95754 | 7839 ft | 269 kts | 266° |
| 2026-05-04 12:49 | 38.05930 | 23.93419 | 8683 ft | 274 kts | 264° |
| 2026-05-04 12:50 | 38.05616 | 23.90974 | 9507 ft | 280 kts | 264° |
| 2026-05-04 12:50 | 38.05307 | 23.88547 | 10294 ft | 286 kts | 264° |
| 2026-05-04 12:50 | 38.04982 | 23.85956 | 10601 ft | 309 kts | 264° |
| 2026-05-04 12:50 | 38.04631 | 23.83142 | 11034 ft | 326 kts | 264° |
| 2026-05-04 12:51 | 38.04276 | 23.80310 | 11702 ft | 333 kts | 264° |
| 2026-05-04 12:51 | 38.03906 | 23.77384 | 12432 ft | 338 kts | 264° |
| 2026-05-04 12:51 | 38.03528 | 23.74413 | 13148 ft | 344 kts | 265° |
| 2026-05-04 12:51 | 38.03164 | 23.71412 | 13899 ft | 346 kts | 268° |
| 2026-05-04 12:52 | 38.03295 | 23.68383 | 14533 ft | 343 kts | 287° |
| 2026-05-04 12:52 | 38.04141 | 23.65565 | 15177 ft | 343 kts | 298° |
| 2026-05-04 12:52 | 38.05153 | 23.62806 | 15835 ft | 347 kts | 298° |
| 2026-05-04 12:52 | 38.06178 | 23.60034 | 16476 ft | 351 kts | 298° |
| 2026-05-04 12:53 | 38.07226 | 23.57202 | 17117 ft | 355 kts | 298° |
| 2026-05-04 12:53 | 38.08279 | 23.54347 | 17714 ft | 360 kts | 297° |
| 2026-05-04 12:53 | 38.09346 | 23.51437 | 18291 ft | 366 kts | 296° |
| 2026-05-04 12:53 | 38.10420 | 23.48490 | 18812 ft | 371 kts | 297° |
| 2026-05-04 12:54 | 38.11504 | 23.45509 | 19385 ft | 373 kts | 298° |
| 2026-05-04 12:54 | 38.12594 | 23.42510 | 19967 ft | 375 kts | 297° |
| 2026-05-04 12:54 | 38.13684 | 23.39512 | 20733 ft | 371 kts | 298° |
| 2026-05-04 12:54 | 38.14759 | 23.36546 | 21478 ft | 370 kts | 298° |
| 2026-05-04 12:55 | 38.15835 | 23.33582 | 22132 ft | 370 kts | 298° |
| 2026-05-04 12:55 | 38.16917 | 23.30601 | 22758 ft | 372 kts | 298° |
| 2026-05-04 12:55 | 38.18001 | 23.27617 | 23324 ft | 373 kts | 298° |
| 2026-05-04 12:55 | 38.19095 | 23.24612 | 23844 ft | 375 kts | 299° |
| 2026-05-04 12:56 | 38.20191 | 23.21595 | 24347 ft | 376 kts | 299° |
| 2026-05-04 12:56 | 38.21287 | 23.18571 | 24838 ft | 378 kts | 299° |
| 2026-05-04 12:56 | 38.22386 | 23.15533 | 25309 ft | 379 kts | 299° |
| 2026-05-04 12:56 | 38.23487 | 23.12483 | 25736 ft | 380 kts | 299° |
| 2026-05-04 12:57 | 38.24592 | 23.09423 | 26197 ft | 380 kts | 300° |
| 2026-05-04 12:57 | 38.25684 | 23.06384 | 26815 ft | 376 kts | 300° |
| 2026-05-04 12:57 | 38.26769 | 23.03356 | 27300 ft | 376 kts | 300° |
| 2026-05-04 12:57 | 38.27841 | 23.00363 | 27728 ft | 377 kts | 300° |
| 2026-05-04 12:58 | 38.28935 | 22.97321 | 28128 ft | 379 kts | 300° |
| 2026-05-04 12:58 | 38.30032 | 22.94260 | 28516 ft | 381 kts | 300° |
| 2026-05-04 12:58 | 38.31136 | 22.91182 | 28907 ft | 383 kts | 300° |
| 2026-05-04 12:58 | 38.32245 | 22.88093 | 29313 ft | 385 kts | 299° |
| 2026-05-04 12:59 | 38.33356 | 22.84992 | 29687 ft | 387 kts | 299° |
| 2026-05-04 12:59 | 38.34477 | 22.81861 | 30058 ft | 388 kts | 299° |
| 2026-05-04 12:59 | 38.35597 | 22.78723 | 30355 ft | 390 kts | 299° |
| 2026-05-04 12:59 | 38.36724 | 22.75561 | 30619 ft | 392 kts | 300° |
| 2026-05-04 13:00 | 38.37852 | 22.72394 | 30918 ft | 394 kts | 300° |
| 2026-05-04 13:00 | 38.39001 | 22.69164 | 31198 ft | 395 kts | 299° |
| 2026-05-04 13:00 | 38.40123 | 22.66008 | 31469 ft | 397 kts | 299° |
| 2026-05-04 13:00 | 38.41267 | 22.62792 | 31744 ft | 399 kts | 299° |
| 2026-05-04 13:01 | 38.42425 | 22.59529 | 32097 ft | 398 kts | 300° |
| 2026-05-04 13:01 | 38.43561 | 22.56315 | 32471 ft | 397 kts | 299° |
| 2026-05-04 13:01 | 38.44692 | 22.53111 | 32877 ft | 396 kts | 299° |
| 2026-05-04 13:01 | 38.45805 | 22.49954 | 33277 ft | 395 kts | 299° |
| 2026-05-04 13:02 | 38.46929 | 22.46761 | 33716 ft | 394 kts | 299° |
| 2026-05-04 13:02 | 38.48049 | 22.43569 | 34094 ft | 392 kts | 299° |
| 2026-05-04 13:02 | 38.49179 | 22.40356 | 34466 ft | 391 kts | 299° |
| 2026-05-04 13:02 | 38.50295 | 22.37188 | 34736 ft | 392 kts | 299° |
| 2026-05-04 13:03 | 38.51413 | 22.34019 | 35032 ft | 392 kts | 299° |
| 2026-05-04 13:03 | 38.52518 | 22.30886 | 35302 ft | 392 kts | 299° |
| 2026-05-04 13:03 | 38.53638 | 22.27705 | 35503 ft | 393 kts | 299° |
| 2026-05-04 13:03 | 38.54758 | 22.24517 | 35682 ft | 394 kts | 298° |
| 2026-05-04 13:04 | 38.55891 | 22.21281 | 35861 ft | 395 kts | 298° |
| 2026-05-04 13:04 | 38.56998 | 22.18113 | 36065 ft | 396 kts | 298° |
| 2026-05-04 13:04 | 38.58122 | 22.14888 | 36126 ft | 399 kts | 298° |
| 2026-05-04 13:05 | 38.60418 | 22.08315 | 36124 ft | 410 kts | 298° |
| 2026-05-04 13:05 | 38.62771 | 22.01553 | 36120 ft | 421 kts | 298° |
| 2026-05-04 13:06 | 38.65151 | 21.94682 | 36119 ft | 423 kts | 298° |
| 2026-05-04 13:06 | 38.67536 | 21.87785 | 36117 ft | 424 kts | 298° |
| 2026-05-04 13:07 | 38.69917 | 21.80890 | 36120 ft | 423 kts | 298° |
| 2026-05-04 13:07 | 38.72294 | 21.74002 | 36094 ft | 423 kts | 298° |
| 2026-05-04 13:08 | 38.74664 | 21.67106 | 36099 ft | 423 kts | 298° |
| 2026-05-04 13:08 | 38.77027 | 21.60206 | 36101 ft | 423 kts | 297° |
| 2026-05-04 13:09 | 38.79389 | 21.53297 | 36102 ft | 423 kts | 298° |
| 2026-05-04 13:09 | 38.81751 | 21.46382 | 36110 ft | 423 kts | 297° |
| 2026-05-04 13:10 | 38.84111 | 21.39468 | 36115 ft | 423 kts | 297° |
| 2026-05-04 13:10 | 38.86465 | 21.32543 | 36116 ft | 423 kts | 297° |
| 2026-05-04 13:11 | 38.88812 | 21.25629 | 36118 ft | 423 kts | 297° |
| 2026-05-04 13:11 | 38.91158 | 21.18697 | 36127 ft | 423 kts | 297° |
| 2026-05-04 13:12 | 38.93495 | 21.11749 | 36119 ft | 423 kts | 297° |
| 2026-05-04 13:12 | 38.95818 | 21.04809 | 36142 ft | 423 kts | 297° |
| 2026-05-04 13:13 | 38.98201 | 20.97917 | 36162 ft | 420 kts | 303° |
| 2026-05-04 13:13 | 39.01668 | 20.92040 | 36160 ft | 415 kts | 313° |
| 2026-05-04 13:14 | 39.05407 | 20.86378 | 36158 ft | 416 kts | 313° |
| 2026-05-04 13:14 | 39.09139 | 20.80700 | 36153 ft | 416 kts | 313° |
| 2026-05-04 13:15 | 39.12863 | 20.75012 | 36145 ft | 415 kts | 312° |
| 2026-05-04 13:15 | 39.16582 | 20.69331 | 36141 ft | 415 kts | 313° |
| 2026-05-04 13:16 | 39.20310 | 20.63644 | 36133 ft | 415 kts | 313° |
| 2026-05-04 13:16 | 39.24030 | 20.57951 | 36116 ft | 415 kts | 312° |
| 2026-05-04 13:17 | 39.27744 | 20.52245 | 36117 ft | 415 kts | 312° |
| 2026-05-04 13:17 | 39.31464 | 20.46522 | 36104 ft | 417 kts | 312° |
| 2026-05-04 13:18 | 39.35187 | 20.40779 | 36106 ft | 417 kts | 312° |
| 2026-05-04 13:18 | 39.38915 | 20.35026 | 36112 ft | 417 kts | 312° |
| 2026-05-04 13:19 | 39.42639 | 20.29269 | 36116 ft | 418 kts | 312° |
| 2026-05-04 13:19 | 39.46362 | 20.23499 | 36119 ft | 417 kts | 312° |
| 2026-05-04 13:20 | 39.50057 | 20.17768 | 36133 ft | 417 kts | 312° |
| 2026-05-04 13:20 | 39.53799 | 20.11949 | 36121 ft | 417 kts | 311° |
| 2026-05-04 13:21 | 39.57516 | 20.06164 | 36135 ft | 418 kts | 311° |
| 2026-05-04 13:21 | 39.61213 | 20.00403 | 36141 ft | 418 kts | 311° |
| 2026-05-04 13:22 | 39.64922 | 19.94589 | 36138 ft | 418 kts | 311° |
| 2026-05-04 13:22 | 39.68635 | 19.88774 | 36140 ft | 418 kts | 311° |
| 2026-05-04 13:23 | 39.72352 | 19.82958 | 36133 ft | 419 kts | 311° |
| 2026-05-04 13:23 | 39.76067 | 19.77129 | 36130 ft | 419 kts | 311° |
| 2026-05-04 13:24 | 39.79776 | 19.71286 | 36129 ft | 419 kts | 311° |
| 2026-05-04 13:24 | 39.83484 | 19.65423 | 36119 ft | 419 kts | 311° |
| 2026-05-04 13:25 | 39.89053 | 19.56628 | 36129 ft | 420 kts | 311° |
| 2026-05-04 13:25 | 39.92757 | 19.50751 | 36128 ft | 420 kts | 311° |
| 2026-05-04 13:26 | 39.96461 | 19.44860 | 36104 ft | 420 kts | 311° |
| 2026-05-04 13:26 | 40.00165 | 19.38959 | 36108 ft | 421 kts | 311° |
| 2026-05-04 13:27 | 40.03873 | 19.33045 | 36116 ft | 421 kts | 311° |
| 2026-05-04 13:27 | 40.07581 | 19.27129 | 36120 ft | 421 kts | 311° |
| 2026-05-04 13:28 | 40.11293 | 19.21202 | 36121 ft | 421 kts | 311° |
| 2026-05-04 13:28 | 40.14992 | 19.15269 | 36125 ft | 421 kts | 311° |
| 2026-05-04 13:29 | 40.18695 | 19.09326 | 36120 ft | 422 kts | 310° |
| 2026-05-04 13:29 | 40.22397 | 19.03361 | 36123 ft | 422 kts | 310° |
| 2026-05-04 13:30 | 40.25851 | 18.97145 | 36131 ft | 424 kts | 304° |
| 2026-05-04 13:30 | 40.28988 | 18.90615 | 36129 ft | 424 kts | 304° |
| 2026-05-04 13:31 | 40.32135 | 18.84079 | 36126 ft | 424 kts | 304° |
| 2026-05-04 13:31 | 40.35254 | 18.77582 | 36101 ft | 424 kts | 304° |
| 2026-05-04 13:32 | 40.38386 | 18.71028 | 36131 ft | 425 kts | 303° |
| 2026-05-04 13:32 | 40.41518 | 18.64454 | 36130 ft | 425 kts | 303° |
| 2026-05-04 13:33 | 40.44138 | 18.58949 | 36123 ft | 425 kts | 303° |
| 2026-05-04 13:33 | 40.47268 | 18.52375 | 36122 ft | 425 kts | 303° |
| 2026-05-04 13:34 | 40.50399 | 18.45792 | 36134 ft | 425 kts | 304° |
| 2026-05-04 13:34 | 40.53519 | 18.39187 | 36128 ft | 426 kts | 303° |
| 2026-05-04 13:35 | 40.58214 | 18.29254 | 36134 ft | 426 kts | 303° |
| 2026-05-04 13:36 | 40.61338 | 18.22621 | 36138 ft | 427 kts | 303° |
| 2026-05-04 13:36 | 40.64450 | 18.15977 | 36128 ft | 426 kts | 303° |
| 2026-05-04 13:37 | 40.67547 | 18.09376 | 36131 ft | 426 kts | 303° |
| 2026-05-04 13:37 | 40.70661 | 18.02719 | 36140 ft | 426 kts | 303° |
| 2026-05-04 13:38 | 40.73772 | 17.96068 | 36144 ft | 427 kts | 303° |
| 2026-05-04 13:38 | 40.76875 | 17.89397 | 36142 ft | 427 kts | 303° |
| 2026-05-04 13:39 | 40.79974 | 17.82719 | 36128 ft | 427 kts | 303° |
| 2026-05-04 13:39 | 40.83078 | 17.76034 | 36129 ft | 427 kts | 303° |
| 2026-05-04 13:40 | 40.86178 | 17.69347 | 36114 ft | 427 kts | 302° |
| 2026-05-04 13:40 | 40.89271 | 17.62635 | 36113 ft | 428 kts | 302° |
| 2026-05-04 13:41 | 40.92363 | 17.55909 | 36108 ft | 428 kts | 302° |
| 2026-05-04 13:41 | 40.95461 | 17.49181 | 36107 ft | 428 kts | 302° |
| 2026-05-04 13:42 | 41.00102 | 17.39065 | 36111 ft | 429 kts | 302° |
| 2026-05-04 13:42 | 41.03189 | 17.32305 | 36120 ft | 429 kts | 302° |
| 2026-05-04 13:43 | 41.06276 | 17.25541 | 36123 ft | 429 kts | 302° |
| 2026-05-04 13:43 | 41.09356 | 17.18764 | 36120 ft | 429 kts | 302° |
| 2026-05-04 13:44 | 41.12443 | 17.11972 | 36115 ft | 430 kts | 302° |
| 2026-05-04 13:44 | 41.15523 | 17.05191 | 36126 ft | 430 kts | 302° |
| 2026-05-04 13:45 | 41.18609 | 16.98365 | 36116 ft | 430 kts | 301° |
| 2026-05-04 13:45 | 41.21657 | 16.91592 | 36117 ft | 430 kts | 301° |
| 2026-05-04 13:46 | 41.24747 | 16.84711 | 36136 ft | 431 kts | 301° |
| 2026-05-04 13:46 | 41.27798 | 16.77917 | 36134 ft | 431 kts | 301° |
| 2026-05-04 13:47 | 41.30869 | 16.71086 | 36132 ft | 431 kts | 301° |
| 2026-05-04 13:47 | 41.33934 | 16.64235 | 36114 ft | 431 kts | 301° |
| 2026-05-04 13:48 | 41.36992 | 16.57376 | 36110 ft | 431 kts | 301° |
| 2026-05-04 13:48 | 41.40049 | 16.50497 | 36106 ft | 431 kts | 301° |
| 2026-05-04 13:49 | 41.43104 | 16.43615 | 36110 ft | 432 kts | 301° |
| 2026-05-04 13:49 | 41.46158 | 16.36727 | 36107 ft | 432 kts | 301° |
| 2026-05-04 13:50 | 41.49212 | 16.29822 | 36096 ft | 433 kts | 301° |
| 2026-05-04 13:50 | 41.52261 | 16.22898 | 36097 ft | 433 kts | 300° |
| 2026-05-04 13:51 | 41.55309 | 16.15957 | 36099 ft | 434 kts | 300° |
| 2026-05-04 13:51 | 41.58365 | 16.09014 | 36101 ft | 434 kts | 301° |
| 2026-05-04 13:52 | 41.62941 | 15.98572 | 36096 ft | 434 kts | 300° |
| 2026-05-04 13:53 | 41.65982 | 15.91597 | 36118 ft | 435 kts | 300° |
| 2026-05-04 13:53 | 41.69021 | 15.84602 | 36120 ft | 435 kts | 300° |
| 2026-05-04 13:54 | 41.73585 | 15.74093 | 36142 ft | 435 kts | 300° |
| 2026-05-04 13:55 | 41.78138 | 15.63574 | 36142 ft | 436 kts | 300° |
| 2026-05-04 13:55 | 41.82686 | 15.53020 | 36136 ft | 436 kts | 300° |
| 2026-05-04 13:56 | 41.85711 | 15.45983 | 36135 ft | 436 kts | 300° |
| 2026-05-04 13:57 | 41.90240 | 15.35409 | 36127 ft | 436 kts | 300° |
| 2026-05-04 13:58 | 41.96254 | 15.21321 | 36126 ft | 433 kts | 300° |
| 2026-05-04 13:58 | 42.00732 | 15.10800 | 36126 ft | 432 kts | 300° |
| 2026-05-04 13:59 | 42.03691 | 15.03820 | 36114 ft | 433 kts | 299° |
| 2026-05-04 14:00 | 42.08178 | 14.93194 | 36101 ft | 434 kts | 299° |
| 2026-05-04 14:00 | 42.12633 | 14.82599 | 36105 ft | 432 kts | 299° |
| 2026-05-04 14:01 | 42.15588 | 14.75548 | 36100 ft | 432 kts | 299° |
| 2026-05-04 14:02 | 42.20001 | 14.65021 | 36102 ft | 432 kts | 299° |
| 2026-05-04 14:02 | 42.22970 | 14.57912 | 36096 ft | 432 kts | 299° |
| 2026-05-04 14:03 | 42.25910 | 14.50848 | 36099 ft | 432 kts | 299° |
| 2026-05-04 14:03 | 42.28832 | 14.43819 | 36103 ft | 432 kts | 299° |
| 2026-05-04 14:04 | 42.33244 | 14.33142 | 36117 ft | 432 kts | 298° |
| 2026-05-04 14:04 | 42.36172 | 14.26032 | 36098 ft | 434 kts | 298° |
| 2026-05-04 14:05 | 42.40562 | 14.15381 | 36100 ft | 434 kts | 298° |
| 2026-05-04 14:06 | 42.43489 | 14.08231 | 36108 ft | 434 kts | 298° |
| 2026-05-04 14:06 | 42.46412 | 14.01077 | 36092 ft | 434 kts | 298° |
| 2026-05-04 14:07 | 42.49332 | 13.93923 | 36095 ft | 434 kts | 298° |
| 2026-05-04 14:07 | 42.52247 | 13.86764 | 36093 ft | 434 kts | 298° |
| 2026-05-04 14:08 | 42.55135 | 13.79664 | 36080 ft | 419 kts | 298° |
| 2026-05-04 14:08 | 42.57946 | 13.72744 | 36095 ft | 419 kts | 298° |
| 2026-05-04 14:09 | 42.62143 | 13.62334 | 36108 ft | 422 kts | 297° |
| 2026-05-04 14:10 | 42.66383 | 13.51777 | 36097 ft | 426 kts | 297° |
| 2026-05-04 14:10 | 42.69231 | 13.44709 | 36122 ft | 425 kts | 298° |
| 2026-05-04 14:11 | 42.72173 | 13.37747 | 36127 ft | 424 kts | 299° |
| 2026-05-04 14:11 | 42.76648 | 13.27416 | 36133 ft | 421 kts | 299° |
| 2026-05-04 14:12 | 42.79587 | 13.20526 | 36138 ft | 421 kts | 298° |
| 2026-05-04 14:13 | 42.83957 | 13.10153 | 36121 ft | 421 kts | 298° |
| 2026-05-04 14:13 | 42.86867 | 13.03247 | 36132 ft | 420 kts | 298° |
| 2026-05-04 14:14 | 42.89775 | 12.96345 | 36142 ft | 420 kts | 298° |
| 2026-05-04 14:14 | 42.94106 | 12.86009 | 36121 ft | 421 kts | 298° |
| 2026-05-04 14:15 | 42.99909 | 12.72114 | 36124 ft | 421 kts | 298° |
| 2026-05-04 14:16 | 43.04245 | 12.61676 | 36140 ft | 421 kts | 298° |
| 2026-05-04 14:17 | 43.08577 | 12.51245 | 36144 ft | 420 kts | 298° |
| 2026-05-04 14:18 | 43.12903 | 12.40803 | 36140 ft | 420 kts | 298° |
| 2026-05-04 14:19 | 43.18144 | 12.28035 | 36137 ft | 420 kts | 297° |
| 2026-05-04 14:19 | 43.21005 | 12.21037 | 36120 ft | 421 kts | 297° |
| 2026-05-04 14:20 | 43.23874 | 12.14027 | 36105 ft | 422 kts | 297° |
| 2026-05-04 14:20 | 43.26741 | 12.07009 | 36108 ft | 422 kts | 297° |
| 2026-05-04 14:21 | 43.31032 | 11.96451 | 36105 ft | 422 kts | 297° |
| 2026-05-04 14:21 | 43.33889 | 11.89405 | 36106 ft | 422 kts | 297° |
| 2026-05-04 14:22 | 43.36739 | 11.82360 | 36110 ft | 422 kts | 297° |
| 2026-05-04 14:22 | 43.39587 | 11.75300 | 36111 ft | 422 kts | 297° |
| 2026-05-04 14:23 | 43.43852 | 11.64701 | 36125 ft | 422 kts | 296° |
| 2026-05-04 14:24 | 43.46694 | 11.57607 | 36102 ft | 423 kts | 296° |
| 2026-05-04 14:24 | 43.49542 | 11.50503 | 36095 ft | 424 kts | 296° |
| 2026-05-04 14:25 | 43.52385 | 11.43377 | 36102 ft | 425 kts | 296° |
| 2026-05-04 14:25 | 43.56631 | 11.32646 | 36104 ft | 425 kts | 296° |
| 2026-05-04 14:26 | 43.59390 | 11.25438 | 36106 ft | 425 kts | 295° |
| 2026-05-04 14:26 | 43.62118 | 11.18207 | 36112 ft | 424 kts | 295° |
| 2026-05-04 14:27 | 43.64848 | 11.10991 | 36113 ft | 424 kts | 295° |
| 2026-05-04 14:27 | 43.67586 | 11.03770 | 36114 ft | 424 kts | 295° |
| 2026-05-04 14:28 | 43.70316 | 10.96558 | 36126 ft | 424 kts | 295° |
| 2026-05-04 14:28 | 43.73049 | 10.89318 | 36100 ft | 425 kts | 295° |
| 2026-05-04 14:29 | 43.78508 | 10.74838 | 36112 ft | 426 kts | 295° |
| 2026-05-04 14:30 | 43.81244 | 10.67551 | 36107 ft | 427 kts | 295° |
| 2026-05-04 14:31 | 43.85325 | 10.56600 | 36131 ft | 427 kts | 294° |
| 2026-05-04 14:32 | 43.90754 | 10.41975 | 36127 ft | 427 kts | 294° |
| 2026-05-04 14:32 | 43.93480 | 10.34656 | 36122 ft | 427 kts | 295° |
| 2026-05-04 14:33 | 43.96370 | 10.27443 | 36139 ft | 428 kts | 297° |
| 2026-05-04 14:33 | 43.99336 | 10.20278 | 36130 ft | 428 kts | 297° |
| 2026-05-04 14:34 | 44.02277 | 10.13078 | 36132 ft | 428 kts | 296° |
| 2026-05-04 14:34 | 44.05185 | 10.05848 | 36139 ft | 428 kts | 296° |
| 2026-05-04 14:35 | 44.08079 | 9.98613 | 36133 ft | 428 kts | 296° |
| 2026-05-04 14:35 | 44.10967 | 9.91374 | 36132 ft | 429 kts | 296° |
| 2026-05-04 14:36 | 44.13861 | 9.84109 | 36133 ft | 429 kts | 296° |
| 2026-05-04 14:36 | 44.16754 | 9.76846 | 36134 ft | 429 kts | 296° |
| 2026-05-04 14:37 | 44.19642 | 9.69579 | 36125 ft | 428 kts | 296° |
| 2026-05-04 14:37 | 44.22518 | 9.62311 | 36117 ft | 429 kts | 295° |
| 2026-05-04 14:38 | 44.25393 | 9.55024 | 36103 ft | 429 kts | 295° |
| 2026-05-04 14:38 | 44.28275 | 9.47716 | 36094 ft | 430 kts | 295° |
| 2026-05-04 14:39 | 44.31142 | 9.40402 | 36098 ft | 430 kts | 295° |
| 2026-05-04 14:39 | 44.33992 | 9.33120 | 36096 ft | 430 kts | 295° |
| 2026-05-04 14:40 | 44.38296 | 9.22114 | 36105 ft | 430 kts | 295° |
| 2026-05-04 14:40 | 44.41154 | 9.14754 | 36113 ft | 430 kts | 295° |
| 2026-05-04 14:41 | 44.44000 | 9.07402 | 36138 ft | 430 kts | 294° |
| 2026-05-04 14:42 | 44.49707 | 8.92661 | 36144 ft | 430 kts | 294° |
| 2026-05-04 14:42 | 44.52544 | 8.85286 | 36140 ft | 430 kts | 294° |
| 2026-05-04 14:43 | 44.55374 | 8.77903 | 36133 ft | 430 kts | 294° |
| 2026-05-04 14:43 | 44.58207 | 8.70513 | 36140 ft | 430 kts | 294° |
| 2026-05-04 14:44 | 44.61060 | 8.63138 | 36129 ft | 431 kts | 295° |
| 2026-05-04 14:44 | 44.64069 | 8.55866 | 36117 ft | 431 kts | 296° |
| 2026-05-04 14:45 | 44.67122 | 8.48611 | 36105 ft | 431 kts | 296° |
| 2026-05-04 14:45 | 44.70133 | 8.41333 | 36111 ft | 431 kts | 296° |
| 2026-05-04 14:46 | 44.73123 | 8.34036 | 36114 ft | 431 kts | 295° |
| 2026-05-04 14:46 | 44.76093 | 8.26760 | 36104 ft | 432 kts | 295° |
| 2026-05-04 14:47 | 44.79100 | 8.19370 | 36100 ft | 432 kts | 295° |
| 2026-05-04 14:47 | 44.82090 | 8.12025 | 36098 ft | 432 kts | 295° |
| 2026-05-04 14:48 | 44.85055 | 8.04722 | 36103 ft | 432 kts | 295° |
| 2026-05-04 14:48 | 44.88034 | 7.97357 | 36119 ft | 432 kts | 295° |
| 2026-05-04 14:49 | 44.91004 | 7.89990 | 36121 ft | 432 kts | 295° |
| 2026-05-04 14:49 | 44.93951 | 7.82593 | 36124 ft | 432 kts | 294° |
| 2026-05-04 14:50 | 44.96748 | 7.75090 | 36116 ft | 432 kts | 292° |
| 2026-05-04 14:50 | 44.99493 | 7.67535 | 36111 ft | 432 kts | 292° |
| 2026-05-04 14:51 | 45.02262 | 7.60014 | 35803 ft | 425 kts | 292° |
| 2026-05-04 14:51 | 45.03617 | 7.56381 | 35695 ft | 411 kts | 292° |
| 2026-05-04 14:51 | 45.04926 | 7.52872 | 35595 ft | 397 kts | 292° |
| 2026-05-04 14:52 | 45.06194 | 7.49477 | 35499 ft | 384 kts | 292° |
| 2026-05-04 14:52 | 45.07421 | 7.46166 | 35130 ft | 379 kts | 292° |
| 2026-05-04 14:52 | 45.08631 | 7.42870 | 34672 ft | 377 kts | 291° |
| 2026-05-04 14:52 | 45.09832 | 7.39585 | 34212 ft | 375 kts | 291° |
| 2026-05-04 14:53 | 45.11023 | 7.36322 | 33719 ft | 372 kts | 291° |
| 2026-05-04 14:53 | 45.12211 | 7.33078 | 33272 ft | 369 kts | 291° |
| 2026-05-04 14:53 | 45.13388 | 7.29866 | 32830 ft | 366 kts | 291° |
| 2026-05-04 14:53 | 45.14557 | 7.26672 | 32379 ft | 365 kts | 291° |
| 2026-05-04 14:54 | 45.15720 | 7.23485 | 31941 ft | 363 kts | 292° |
| 2026-05-04 14:54 | 45.16863 | 7.20350 | 31510 ft | 364 kts | 291° |
| 2026-05-04 14:54 | 45.18025 | 7.17163 | 31081 ft | 363 kts | 291° |
| 2026-05-04 14:54 | 45.19082 | 7.13926 | 30641 ft | 360 kts | 287° |
| 2026-05-04 14:55 | 45.20029 | 7.10643 | 30209 ft | 359 kts | 287° |
| 2026-05-04 14:55 | 45.20976 | 7.07373 | 29739 ft | 357 kts | 287° |
| 2026-05-04 14:55 | 45.21915 | 7.04125 | 29319 ft | 355 kts | 287° |
| 2026-05-04 14:55 | 45.22846 | 7.00894 | 28909 ft | 353 kts | 287° |
| 2026-05-04 14:56 | 45.23771 | 6.97674 | 28512 ft | 351 kts | 287° |
| 2026-05-04 14:56 | 45.24689 | 6.94479 | 28133 ft | 349 kts | 287° |
| 2026-05-04 14:56 | 45.25604 | 6.91287 | 27722 ft | 348 kts | 287° |
| 2026-05-04 14:56 | 45.26511 | 6.88114 | 27339 ft | 346 kts | 287° |
| 2026-05-04 14:57 | 45.27414 | 6.84957 | 26960 ft | 344 kts | 287° |
| 2026-05-04 14:57 | 45.28313 | 6.81813 | 26569 ft | 343 kts | 287° |
| 2026-05-04 14:57 | 45.29206 | 6.78681 | 26171 ft | 341 kts | 287° |
| 2026-05-04 14:57 | 45.30094 | 6.75559 | 25770 ft | 340 kts | 287° |
| 2026-05-04 14:58 | 45.30979 | 6.72457 | 25379 ft | 338 kts | 287° |
| 2026-05-04 14:58 | 45.31860 | 6.69368 | 24980 ft | 337 kts | 287° |
| 2026-05-04 14:58 | 45.32738 | 6.66289 | 24568 ft | 336 kts | 287° |
| 2026-05-04 14:58 | 45.33316 | 6.64254 | 24270 ft | 335 kts | 287° |
| 2026-05-04 14:59 | 45.34476 | 6.60155 | 23706 ft | 333 kts | 287° |
| 2026-05-04 14:59 | 45.35336 | 6.57101 | 23243 ft | 332 kts | 287° |
| 2026-05-04 14:59 | 45.37044 | 6.51032 | 22365 ft | 329 kts | 287° |
| 2026-05-04 15:00 | 45.37889 | 6.48026 | 21953 ft | 326 kts | 285° |
| 2026-05-04 15:00 | 45.38464 | 6.44948 | 21547 ft | 319 kts | 274° |
| 2026-05-04 15:00 | 45.38603 | 6.41839 | 21151 ft | 312 kts | 264° |
| 2026-05-04 15:01 | 45.37998 | 6.35802 | 20368 ft | 307 kts | 257° |
| 2026-05-04 15:01 | 45.37650 | 6.32804 | 19983 ft | 307 kts | 257° |
| 2026-05-04 15:01 | 45.37306 | 6.29811 | 19607 ft | 307 kts | 257° |
| 2026-05-04 15:01 | 45.36968 | 6.26859 | 19234 ft | 307 kts | 257° |
| 2026-05-04 15:02 | 45.36620 | 6.23866 | 18854 ft | 307 kts | 257° |
| 2026-05-04 15:02 | 45.36270 | 6.20877 | 18480 ft | 306 kts | 257° |
| 2026-05-04 15:02 | 45.35920 | 6.17899 | 18068 ft | 305 kts | 257° |
| 2026-05-04 15:02 | 45.35572 | 6.14935 | 17681 ft | 304 kts | 256° |
| 2026-05-04 15:03 | 45.35224 | 6.11971 | 17310 ft | 303 kts | 256° |
| 2026-05-04 15:03 | 45.34877 | 6.09027 | 16942 ft | 301 kts | 256° |
| 2026-05-04 15:03 | 45.34530 | 6.06095 | 16583 ft | 300 kts | 256° |
| 2026-05-04 15:03 | 45.34184 | 6.03183 | 16214 ft | 299 kts | 256° |
| 2026-05-04 15:04 | 45.33837 | 6.00275 | 15856 ft | 298 kts | 256° |
| 2026-05-04 15:04 | 45.33488 | 5.97381 | 15499 ft | 297 kts | 256° |
| 2026-05-04 15:04 | 45.33139 | 5.94484 | 15141 ft | 297 kts | 256° |
| 2026-05-04 15:04 | 45.32793 | 5.91590 | 14910 ft | 300 kts | 256° |
| 2026-05-04 15:05 | 45.32441 | 5.88643 | 14781 ft | 304 kts | 256° |
| 2026-05-04 15:05 | 45.32086 | 5.85679 | 14627 ft | 304 kts | 256° |
| 2026-05-04 15:05 | 45.31730 | 5.82722 | 14480 ft | 304 kts | 256° |
| 2026-05-04 15:05 | 45.31371 | 5.79767 | 14326 ft | 303 kts | 257° |
| 2026-05-04 15:06 | 45.31011 | 5.76815 | 14171 ft | 302 kts | 257° |
| 2026-05-04 15:06 | 45.30769 | 5.74829 | 14069 ft | 302 kts | 257° |
| 2026-05-04 15:06 | 45.30417 | 5.71933 | 13913 ft | 302 kts | 257° |
| 2026-05-04 15:07 | 45.29710 | 5.66026 | 13600 ft | 301 kts | 257° |
| 2026-05-04 15:07 | 45.29365 | 5.63135 | 13445 ft | 301 kts | 257° |
| 2026-05-04 15:07 | 45.29011 | 5.60214 | 13279 ft | 299 kts | 257° |
| 2026-05-04 15:07 | 45.28693 | 5.57295 | 13112 ft | 302 kts | 263° |
| 2026-05-04 15:08 | 45.29026 | 5.54335 | 12944 ft | 310 kts | 288° |
| 2026-05-04 15:08 | 45.30255 | 5.51804 | 12777 ft | 318 kts | 314° |
| 2026-05-04 15:08 | 45.32189 | 5.50236 | 12599 ft | 326 kts | 339° |
| 2026-05-04 15:08 | 45.34379 | 5.49369 | 12420 ft | 327 kts | 342° |
| 2026-05-04 15:09 | 45.36506 | 5.48277 | 12244 ft | 323 kts | 330° |
| 2026-05-04 15:09 | 45.38443 | 5.46679 | 12081 ft | 321 kts | 325° |
| 2026-05-04 15:09 | 45.40348 | 5.45022 | 11924 ft | 321 kts | 325° |
| 2026-05-04 15:10 | 45.44136 | 5.41718 | 11606 ft | 317 kts | 325° |
| 2026-05-04 15:10 | 45.46008 | 5.40079 | 11444 ft | 315 kts | 324° |
| 2026-05-04 15:10 | 45.49770 | 5.36925 | 11129 ft | 315 kts | 333° |
| 2026-05-04 15:11 | 45.51864 | 5.36012 | 10979 ft | 317 kts | 347° |
| 2026-05-04 15:11 | 45.54068 | 5.35762 | 10819 ft | 318 kts | 355° |
| 2026-05-04 15:11 | 45.56282 | 5.35642 | 10661 ft | 318 kts | 355° |
| 2026-05-04 15:11 | 45.58484 | 5.35516 | 10504 ft | 317 kts | 355° |
| 2026-05-04 15:12 | 45.60687 | 5.35386 | 10348 ft | 316 kts | 355° |
| 2026-05-04 15:12 | 45.62880 | 5.35255 | 10190 ft | 315 kts | 355° |
| 2026-05-04 15:12 | 45.65046 | 5.35126 | 9993 ft | 309 kts | 355° |
| 2026-05-04 15:12 | 45.67186 | 5.34997 | 9664 ft | 307 kts | 355° |
| 2026-05-04 15:13 | 45.69311 | 5.34867 | 9317 ft | 305 kts | 355° |
| 2026-05-04 15:13 | 45.71421 | 5.34740 | 8969 ft | 303 kts | 355° |
| 2026-05-04 15:13 | 45.73520 | 5.34617 | 8637 ft | 301 kts | 355° |
| 2026-05-04 15:13 | 45.75602 | 5.34387 | 8301 ft | 298 kts | 347° |
| 2026-05-04 15:14 | 45.77567 | 5.33537 | 7971 ft | 293 kts | 332° |
| 2026-05-04 15:14 | 45.79371 | 5.32211 | 7644 ft | 292 kts | 328° |
| 2026-05-04 15:14 | 45.81168 | 5.30854 | 7320 ft | 292 kts | 328° |
| 2026-05-04 15:14 | 45.82966 | 5.29490 | 6989 ft | 292 kts | 326° |
| 2026-05-04 15:15 | 45.84578 | 5.27778 | 6666 ft | 286 kts | 313° |
| 2026-05-04 15:15 | 45.86052 | 5.25859 | 6304 ft | 286 kts | 313° |
| 2026-05-04 15:15 | 45.87519 | 5.23961 | 5973 ft | 283 kts | 314° |
| 2026-05-04 15:16 | 45.90365 | 5.20288 | 5573 ft | 266 kts | 314° |
| 2026-05-04 15:16 | 45.91724 | 5.18515 | 5462 ft | 256 kts | 310° |
| 2026-05-04 15:16 | 45.93207 | 5.14223 | 5213 ft | 236 kts | 271° |
| 2026-05-04 15:17 | 45.93175 | 5.11925 | 4964 ft | 228 kts | 256° |
| 2026-05-04 15:17 | 45.92365 | 5.07798 | 4485 ft | 206 kts | 217° |
| 2026-05-04 15:17 | 45.91098 | 5.07067 | 4233 ft | 197 kts | 180° |
| 2026-05-04 15:18 | 45.89755 | 5.07232 | 4025 ft | 191 kts | 176° |
| 2026-05-04 15:18 | 45.88437 | 5.07375 | 3785 ft | 189 kts | 176° |
| 2026-05-04 15:18 | 45.87137 | 5.07526 | 3542 ft | 185 kts | 176° |
| 2026-05-04 15:19 | 45.84662 | 5.07826 | 3079 ft | 171 kts | 176° |
| 2026-05-04 15:19 | 45.83491 | 5.07969 | 2841 ft | 168 kts | 176° |
| 2026-05-04 15:19 | 45.81293 | 5.08237 | 2415 ft | 152 kts | 175° |
| 2026-05-04 15:20 | 45.80246 | 5.08364 | 2208 ft | 148 kts | 175° |
| 2026-05-04 15:20 | 45.79258 | 5.08484 | 2014 ft | 137 kts | 175° |
| 2026-05-04 15:20 | 45.78327 | 5.08598 | 1830 ft | 133 kts | 173° |
| 2026-05-04 15:20 | 45.77409 | 5.08710 | 1630 ft | 131 kts | 173° |
| 2026-05-04 15:21 | 45.76498 | 5.08821 | 1442 ft | 131 kts | 172° |
| 2026-05-04 15:21 | 45.75586 | 5.08933 | 1244 ft | 131 kts | 172° |
| 2026-05-04 15:21 | 45.73754 | 5.09160 | 868 ft | 133 kts | 172° |
| 2026-05-04 15:22 | 45.72886 | 5.09266 | 803 ft | 112 kts | 174° |
| 2026-05-04 15:22 | 45.72329 | 5.09329 | 814 ft | 52 kts | 175° |
| 2026-05-04 15:22 | 45.71989 | 5.09188 | 814 ft | 15 kts | 250° |
| 2026-05-04 15:23 | 45.71982 | 5.09075 | 811 ft | 10 kts | 265° |
| 2026-05-04 15:23 | 45.71975 | 5.08983 | 811 ft | 10 kts | 263° |
| 2026-05-04 15:23 | 45.71968 | 5.08881 | 811 ft | 11 kts | 264° |
| 2026-05-04 15:23 | 45.71960 | 5.08773 | 811 ft | 10 kts | 264° |
| 2026-05-04 15:24 | 45.71946 | 5.08569 | 805 ft | 12 kts | 264° |
| 2026-05-04 15:24 | 45.71969 | 5.08301 | 799 ft | 10 kts | 285° |
| 2026-05-04 15:25 | 45.72023 | 5.08254 | 797 ft | 10 kts | 6° |
| 2026-05-04 15:25 | 45.72075 | 5.08251 | 797 ft | 6 kts | 306° |
| 2026-05-04 15:25 | 45.72095 | 5.08204 | 796 ft | 5 kts | 306° |
| 2026-05-04 15:26 | 45.72107 | 5.08180 | 797 ft | 0 kts | 305° |